createdAt,value
2022-09-05T00:01:29.805Z,23.144783893445947
2022-09-05T00:04:31.390Z,23.050355824106372
2022-09-05T00:07:31.134Z,23.068342115452104
2022-09-05T00:11:40.891Z,23.069626850684653
2022-09-05T00:15:15.833Z,23.060633704438807
2022-09-05T00:17:39.399Z,23.003463009862116
2022-09-05T00:24:27.138Z,22.91674348572269
2022-09-05T00:27:25.314Z,22.840301899836867
2022-09-05T00:31:54.898Z,22.823600385442205
2022-09-05T00:34:47.531Z,22.785700806487874
2022-09-05T00:37:29.783Z,22.786343172100988
2022-09-05T00:41:17.855Z,22.736238667934323
2022-09-05T00:44:21.649Z,22.73238447645208
2022-09-05T00:47:25.343Z,22.67714108319642
2022-09-05T00:51:34.813Z,22.66493615201325
2022-09-05T00:54:41.131Z,22.63217555537567
2022-09-05T00:57:37.329Z,22.558946029190064
2022-09-05T01:01:28.444Z,22.50370274152674
2022-09-05T01:04:31.564Z,22.414414243042483
2022-09-05T01:07:38.030Z,22.327052919491326
2022-09-05T01:11:33.425Z,22.27694866893726
2022-09-05T01:14:49.848Z,22.210785406107696
2022-09-05T01:17:34.817Z,22.203719429433477
2022-09-05T01:21:41.721Z,22.19986526057037
2022-09-05T01:31:27.987Z,21.981462625809947
2022-09-05T01:34:31.349Z,21.98724386525073
2022-09-05T01:37:26.519Z,21.93071620652563
2022-09-05T01:41:22.913Z,21.96090711078141
2022-09-05T01:44:31.170Z,21.903737109094163
2022-09-05T01:47:31.212Z,21.83885883620569
2022-09-05T01:51:28.022Z,21.78747013812863
2022-09-05T01:54:29.599Z,21.68726226058825
2022-09-05T01:57:23.806Z,21.68726226058825
2022-09-05T02:01:32.624Z,21.58255799394983
2022-09-05T02:04:36.158Z,21.599259279915806
2022-09-05T02:07:31.826Z,21.583842708145767
2022-09-05T02:11:36.068Z,21.538235365329093
2022-09-05T02:14:34.126Z,21.493912758358874
2022-09-05T02:17:50.140Z,21.509329314849403
2022-09-05T02:21:25.361Z,21.43031949052274
2022-09-05T02:24:22.419Z,21.37058040073107
2022-09-05T02:27:31.560Z,21.377003956885982
2022-09-05T02:31:22.816Z,21.37058040073107
2022-09-05T02:34:30.888Z,21.323046099318255
2022-09-05T03:23:24.814Z,20.795031615015706
2022-09-05T09:51:35.956Z,26.89564905868938
2022-09-05T09:54:42.296Z,27.039545586824897
2022-09-05T09:58:08.694Z,27.21170780422144
2022-09-05T10:01:35.881Z,27.432692621654496
2022-09-05T10:10:32.787Z,27.619630779809903
2022-09-05T10:11:53.543Z,28.1168496108171
2022-09-05T10:15:00.260Z,28.248542393186653
2022-09-05T10:18:36.287Z,28.42970058168321
2022-09-05T10:21:34.618Z,28.6628941013646
2022-09-05T10:24:32.704Z,28.890306540648545
2022-09-05T10:35:05.076Z,29.265474070199797
2022-09-05T10:37:18.391Z,29.678545592687804
2022-09-05T10:41:22.825Z,29.89632433736051
2022-09-05T10:44:27.167Z,29.99782611372002
2022-09-05T10:47:28.919Z,30.14365481391178
2022-09-05T10:51:27.228Z,30.29398067965085
2022-09-05T10:54:32.225Z,30.46229455129687
2022-09-05T10:57:39.185Z,30.61711789206611
2022-09-05T11:02:24.546Z,30.85224430061289
2022-09-05T11:04:37.153Z,30.92291082660604
2022-09-05T11:07:27.834Z,31.11178344796217
2022-09-05T11:11:28.279Z,31.35526267925743
2022-09-05T11:14:34.838Z,31.558269608930278
2022-09-05T11:17:28.020Z,31.666839957052524
2022-09-05T11:21:24.086Z,31.833229085808853
2022-09-05T11:24:28.500Z,32.00154581214046
2022-09-05T11:27:28.705Z,32.14031098158485
2022-09-05T11:31:20.720Z,32.28935528879265
2022-09-05T11:39:46.643Z,32.523201160616374
2022-09-05T12:01:38.314Z,33.567805736478476
2022-09-05T12:04:36.854Z,33.70271864323331
2022-09-05T12:07:44.111Z,33.80358223310331
2022-09-05T12:11:32.343Z,34.09589454389679
2022-09-05T12:14:41.361Z,34.19997080270114
2022-09-05T12:21:28.404Z,34.29698026250708
2022-09-05T12:25:15.835Z,34.39912940841496
2022-09-05T12:27:44.675Z,34.372146603983126
2022-09-05T12:32:36.563Z,34.611137436646096
2022-09-05T12:41:38.634Z,34.90987686242452
2022-09-05T12:42:07.482Z,34.72163878707797
2022-09-05T12:51:46.470Z,35.04479176411051
2022-09-05T13:03:04.487Z,35.134735143314266
2022-09-05T13:04:25.032Z,35.17713705299548
2022-09-05T13:07:21.124Z,35.28249945978687
2022-09-05T13:14:48.383Z,35.44568294098072
2022-09-05T13:17:22.469Z,35.57610144594255
2022-09-05T13:21:22.918Z,35.45596222520917
2022-09-05T13:38:06.055Z,35.665402894867384
2022-09-05T13:41:27.834Z,35.784899935192605
2022-09-05T13:51:28.405Z,35.76112900603366
2022-09-05T14:01:35.714Z,35.915318927570844
2022-09-05T14:11:57.187Z,35.73350333942735
2022-09-05T14:21:16.871Z,35.86392225795462
2022-09-05T14:37:35.181Z,35.95129661361898
2022-09-05T14:41:37.113Z,35.93395022749401
2022-09-05T14:51:28.196Z,35.82601723275957
2022-09-05T15:02:50.753Z,35.71422962351871
2022-09-05T15:12:21.895Z,35.62878286561609
2022-09-05T15:21:34.059Z,35.54783337969893
2022-09-05T15:31:23.472Z,35.39878372146086
2022-09-05T15:41:20.914Z,35.240739954658785
2022-09-05T15:51:31.530Z,34.94392679488264
2022-09-05T15:54:37.459Z,35.00881443738554
2022-09-05T15:57:22.154Z,35.055071002936984
2022-09-05T16:01:35.875Z,34.96127299180089
2022-09-05T16:12:06.295Z,34.692086087155985
2022-09-05T16:23:32.265Z,34.19161899975088
2022-09-05T16:24:26.134Z,34.063129820454286
2022-09-05T16:27:43.582Z,33.97575728243328
2022-09-05T16:31:22.574Z,33.71042795824796
2022-09-05T16:34:26.470Z,33.59221853331583
2022-09-05T16:37:22.749Z,33.4817185579308
2022-09-05T16:41:24.455Z,33.32046592828419
2022-09-05T16:44:27.676Z,33.18619602896833
2022-09-05T16:47:30.504Z,33.078908740230055
2022-09-05T16:51:35.561Z,32.85020093129215
2022-09-05T16:54:25.033Z,32.57074132913404
2022-09-05T16:57:22.050Z,32.50007352007124
2022-09-05T17:01:24.772Z,32.30862827742385
2022-09-05T17:04:24.186Z,32.23282121241827
2022-09-05T17:07:29.084Z,32.151874755282186
2022-09-05T17:11:29.801Z,31.95207865025668
2022-09-05T17:14:20.228Z,31.648209533054615
2022-09-05T17:18:19.597Z,31.557627181221413
2022-09-05T17:21:43.508Z,31.413081062346826
2022-09-05T17:29:15.848Z,31.365541500225664
2022-09-05T17:41:37.398Z,30.61519062893931
2022-09-05T17:44:25.503Z,30.71862047458353
2022-09-05T17:47:35.422Z,30.664014640766254
2022-09-05T17:52:05.410Z,30.46357939121226
2022-09-05T17:54:26.837Z,30.471288431086577
2022-09-05T17:57:49.352Z,30.38520418966109
2022-09-05T18:01:19.781Z,30.32545920443381
2022-09-05T18:04:44.263Z,30.110249099784777
2022-09-05T18:08:07.416Z,30.06977680875798
2022-09-05T18:12:08.953Z,29.902106081066087
2022-09-05T18:14:42.686Z,29.531432813127413
2022-09-05T18:18:01.817Z,29.498027324355007
2022-09-05T18:21:22.785Z,29.27511024292944
2022-09-05T18:24:33.471Z,29.28153435865097
2022-09-05T18:27:44.014Z,29.1819606160695
2022-09-05T18:32:39.632Z,29.12928293837549
2022-09-05T18:35:37.739Z,29.131210169947373
2022-09-05T18:38:18.924Z,28.910863625392174
2022-09-05T18:41:22.036Z,28.667390951985727
2022-09-05T18:44:20.242Z,28.786878778683967
2022-09-05T18:47:33.462Z,28.604435063567145
2022-09-05T18:51:36.148Z,28.637840223411693
2022-09-05T18:54:34.012Z,28.565890663641405
2022-09-05T19:11:28.663Z,28.150896994771028
2022-09-05T19:15:15.182Z,28.026913186337424
2022-09-05T19:17:23.870Z,27.864385445317385
2022-09-05T19:36:51.851Z,27.72113000980253
2022-09-05T19:47:28.823Z,27.600358786938976
2022-09-05T19:51:22.472Z,27.015776948141955
2022-09-05T19:54:26.885Z,26.949610230001053
2022-09-05T19:57:19.456Z,26.95025262509089
2022-09-05T20:01:18.865Z,27.10314278580636
2022-09-05T20:04:20.288Z,27.047896731623858
2022-09-05T20:07:19.392Z,27.025412881992814
2022-09-05T20:11:23.744Z,27.035691212561506
2022-09-05T20:14:20.280Z,26.99586268809253
2022-09-05T20:17:21.417Z,26.974663641874304
2022-09-05T20:21:23.212Z,26.948325439835024
2022-09-05T20:24:17.707Z,26.8828011654874
2022-09-05T20:27:17.487Z,26.797362721962507
2022-09-05T20:31:23.462Z,26.69522213188502
2022-09-05T20:34:56.813Z,26.59629361964762
2022-09-05T20:43:23.027Z,26.4845173784448
2022-09-05T20:44:23.031Z,26.413854308486044
2022-09-05T20:54:06.525Z,26.30015112051051
2022-09-05T20:54:18.047Z,26.31813805601496
2022-09-05T21:01:33.052Z,25.805511791258414
2022-09-05T21:04:34.757Z,25.765041420006675
2022-09-05T21:07:39.151Z,25.86011470170961
2022-09-05T21:11:27.328Z,25.76825335357362
2022-09-05T21:14:19.123Z,25.688597434664644
2022-09-05T21:17:21.662Z,25.63463701319497
2022-09-05T21:21:29.044Z,25.56076267869357
2022-09-05T21:24:22.831Z,25.46568971062079
2022-09-05T21:27:21.932Z,25.26333879261956
2022-09-05T21:31:18.441Z,25.273616923608735
2022-09-05T21:34:23.608Z,25.323080445276354
2022-09-05T21:37:17.958Z,25.298669872772006
2022-09-05T21:41:16.299Z,25.184325699514375
2022-09-05T21:47:40.083Z,25.180471404049605
2022-09-05T22:01:51.555Z,24.936366358125817
